sensor_id;sensor_type;location;lat;lon;timestamp;temperature;humidity
49379;DHT22;35254;47.990;-1.608;2023-08-30T07:11:07;21.40;66.00
49379;DHT22;35254;47.990;-1.608;2023-08-30T07:13:32;21.40;66.20
49379;DHT22;35254;47.990;-1.608;2023-08-30T07:15:58;21.40;65.50
49379;DHT22;35254;47.990;-1.608;2023-08-30T07:18:24;21.40;65.30
49379;DHT22;35254;47.990;-1.608;2023-08-30T07:20:49;21.50;65.10
49379;DHT22;35254;47.990;-1.608;2023-08-30T07:23:15;21.50;65.70
49379;DHT22;35254;47.990;-1.608;2023-08-30T07:25:41;21.50;64.90
49379;DHT22;35254;47.990;-1.608;2023-08-30T07:28:07;21.50;65.00
49379;DHT22;35254;47.990;-1.608;2023-08-30T07:30:33;21.50;64.70
49379;DHT22;35254;47.990;-1.608;2023-08-30T07:33:00;21.60;64.70
49379;DHT22;35254;47.990;-1.608;2023-08-30T07:35:26;21.60;64.60
49379;DHT22;35254;47.990;-1.608;2023-08-30T07:37:51;21.60;64.70
49379;DHT22;35254;47.990;-1.608;2023-08-30T07:40:17;21.60;64.50
49379;DHT22;35254;47.990;-1.608;2023-08-30T07:42:43;21.60;64.50
49379;DHT22;35254;47.990;-1.608;2023-08-30T07:45:08;21.60;64.40
49379;DHT22;35254;47.990;-1.608;2023-08-30T07:47:35;21.70;64.40
49379;DHT22;35254;47.990;-1.608;2023-08-30T07:50:00;21.60;64.60
49379;DHT22;35254;47.990;-1.608;2023-08-30T07:52:26;21.70;64.40
49379;DHT22;35254;47.990;-1.608;2023-08-30T07:54:51;21.70;64.30
49379;DHT22;35254;47.990;-1.608;2023-08-30T07:57:17;21.70;64.30
49379;DHT22;35254;47.990;-1.608;2023-08-30T07:59:42;21.70;64.30
49379;DHT22;35254;47.990;-1.608;2023-08-30T08:02:08;21.70;64.30
49379;DHT22;35254;47.990;-1.608;2023-08-30T08:04:35;21.70;64.10
49379;DHT22;35254;47.990;-1.608;2023-08-30T08:07:01;21.70;64.20
49379;DHT22;35254;47.990;-1.608;2023-08-30T08:09:27;21.80;64.00
49379;DHT22;35254;47.990;-1.608;2023-08-30T08:11:53;21.80;64.00
49379;DHT22;35254;47.990;-1.608;2023-08-30T08:14:19;21.80;63.90
49379;DHT22;35254;47.990;-1.608;2023-08-30T08:16:44;21.80;64.00
49379;DHT22;35254;47.990;-1.608;2023-08-30T08:19:11;21.90;64.00
49379;DHT22;35254;47.990;-1.608;2023-08-30T08:21:38;21.90;63.90
49379;DHT22;35254;47.990;-1.608;2023-08-30T08:24:04;21.90;63.90
49379;DHT22;35254;47.990;-1.608;2023-08-30T08:26:29;22.00;63.80
49379;DHT22;35254;47.990;-1.608;2023-08-30T08:28:55;21.90;63.70
49379;DHT22;35254;47.990;-1.608;2023-08-30T08:31:21;22.00;63.80
49379;DHT22;35254;47.990;-1.608;2023-08-30T08:33:51;22.10;63.60
49379;DHT22;35254;47.990;-1.608;2023-08-30T08:36:17;22.10;63.50
49379;DHT22;35254;47.990;-1.608;2023-08-30T08:38:42;22.10;63.50
49379;DHT22;35254;47.990;-1.608;2023-08-30T08:41:12;22.10;62.80
49379;DHT22;35254;47.990;-1.608;2023-08-30T08:43:40;22.10;62.50
49379;DHT22;35254;47.990;-1.608;2023-08-30T08:46:08;22.10;62.10
49379;DHT22;35254;47.990;-1.608;2023-08-30T08:48:40;22.20;61.70
49379;DHT22;35254;47.990;-1.608;2023-08-30T08:51:06;22.20;61.30
49379;DHT22;35254;47.990;-1.608;2023-08-30T08:53:32;22.20;61.20
49379;DHT22;35254;47.990;-1.608;2023-08-30T08:56:00;22.20;60.60
49379;DHT22;35254;47.990;-1.608;2023-08-30T08:58:27;22.20;60.90
49379;DHT22;35254;47.990;-1.608;2023-08-30T09:00:54;22.20;60.70
49379;DHT22;35254;47.990;-1.608;2023-08-30T09:03:21;22.20;60.80
49379;DHT22;35254;47.990;-1.608;2023-08-30T09:05:47;22.20;61.20
49379;DHT22;35254;47.990;-1.608;2023-08-30T09:08:15;22.20;60.50
49379;DHT22;35254;47.990;-1.608;2023-08-30T09:10:41;22.20;60.50
49379;DHT22;35254;47.990;-1.608;2023-08-30T09:13:07;22.20;60.60
49379;DHT22;35254;47.990;-1.608;2023-08-30T09:15:34;22.20;58.80
49379;DHT22;35254;47.990;-1.608;2023-08-30T09:18:00;22.20;59.90
49379;DHT22;35254;47.990;-1.608;2023-08-30T09:20:26;22.20;60.00
49379;DHT22;35254;47.990;-1.608;2023-08-30T09:22:51;22.20;59.90
49379;DHT22;35254;47.990;-1.608;2023-08-30T09:25:27;22.20;59.70
49379;DHT22;35254;47.990;-1.608;2023-08-30T09:28:02;22.10;59.10
49379;DHT22;35254;47.990;-1.608;2023-08-30T09:30:29;22.10;58.60
49379;DHT22;35254;47.990;-1.608;2023-08-30T09:33:01;22.10;58.20
49379;DHT22;35254;47.990;-1.608;2023-08-30T09:35:27;22.10;59.30
49379;DHT22;35254;47.990;-1.608;2023-08-30T09:37:54;22.10;59.60
49379;DHT22;35254;47.990;-1.608;2023-08-30T09:40:20;22.20;60.30
49379;DHT22;35254;47.990;-1.608;2023-08-30T09:42:46;22.10;60.50
49379;DHT22;35254;47.990;-1.608;2023-08-30T09:45:22;22.10;60.60
49379;DHT22;35254;47.990;-1.608;2023-08-30T09:47:51;22.10;60.80
49379;DHT22;35254;47.990;-1.608;2023-08-30T09:50:20;22.10;60.90
49379;DHT22;35254;47.990;-1.608;2023-08-30T09:52:49;22.10;60.90
49379;DHT22;35254;47.990;-1.608;2023-08-30T09:55:15;22.10;60.90
49379;DHT22;35254;47.990;-1.608;2023-08-30T09:57:42;22.20;60.90
49379;DHT22;35254;47.990;-1.608;2023-08-30T10:00:09;22.20;60.90
49379;DHT22;35254;47.990;-1.608;2023-08-30T10:02:41;22.20;60.90
49379;DHT22;35254;47.990;-1.608;2023-08-30T10:05:08;22.20;61.00
49379;DHT22;35254;47.990;-1.608;2023-08-30T10:07:36;22.20;61.00
49379;DHT22;35254;47.990;-1.608;2023-08-30T10:10:03;22.20;61.00
49379;DHT22;35254;47.990;-1.608;2023-08-30T10:12:31;22.20;61.10
49379;DHT22;35254;47.990;-1.608;2023-08-30T10:14:58;22.20;61.10
49379;DHT22;35254;47.990;-1.608;2023-08-30T10:17:31;22.20;61.20
49379;DHT22;35254;47.990;-1.608;2023-08-30T10:19:58;22.20;61.20
49379;DHT22;35254;47.990;-1.608;2023-08-30T10:22:25;22.20;61.20
49379;DHT22;35254;47.990;-1.608;2023-08-30T10:24:53;22.20;61.30
49379;DHT22;35254;47.990;-1.608;2023-08-30T10:27:20;22.20;61.30
49379;DHT22;35254;47.990;-1.608;2023-08-30T10:29:48;22.20;61.40
49379;DHT22;35254;47.990;-1.608;2023-08-30T10:32:22;22.20;61.40
49379;DHT22;35254;47.990;-1.608;2023-08-30T10:34:49;22.20;61.40
49379;DHT22;35254;47.990;-1.608;2023-08-30T10:37:15;22.20;61.50
49379;DHT22;35254;47.990;-1.608;2023-08-30T10:39:42;22.20;61.50
49379;DHT22;35254;47.990;-1.608;2023-08-30T10:42:10;22.20;61.50
49379;DHT22;35254;47.990;-1.608;2023-08-30T10:44:57;22.20;61.70
49379;DHT22;35254;47.990;-1.608;2023-08-30T10:47:30;22.20;61.80
49379;DHT22;35254;47.990;-1.608;2023-08-30T10:50:00;22.20;61.50
49379;DHT22;35254;47.990;-1.608;2023-08-30T10:52:27;22.20;61.60
49379;DHT22;35254;47.990;-1.608;2023-08-30T10:55:15;22.20;61.50
49379;DHT22;35254;47.990;-1.608;2023-08-30T10:58:03;22.20;61.30
49379;DHT22;35254;47.990;-1.608;2023-08-30T11:00:33;22.20;61.10
49379;DHT22;35254;47.990;-1.608;2023-08-30T11:02:59;22.20;60.90
49379;DHT22;35254;47.990;-1.608;2023-08-30T11:05:26;22.30;61.00
49379;DHT22;35254;47.990;-1.608;2023-08-30T11:07:53;22.30;60.90
49379;DHT22;35254;47.990;-1.608;2023-08-30T11:10:20;22.30;60.90
49379;DHT22;35254;47.990;-1.608;2023-08-30T11:12:47;22.30;60.60
49379;DHT22;35254;47.990;-1.608;2023-08-30T11:15:15;22.30;60.30
49379;DHT22;35254;47.990;-1.608;2023-08-30T11:17:44;22.30;59.80
49379;DHT22;35254;47.990;-1.608;2023-08-30T11:20:12;22.30;60.00
49379;DHT22;35254;47.990;-1.608;2023-08-30T11:25:08;22.40;59.90
49379;DHT22;35254;47.990;-1.608;2023-08-30T11:27:34;22.40;59.70
49379;DHT22;35254;47.990;-1.608;2023-08-30T11:30:01;22.30;59.90
49379;DHT22;35254;47.990;-1.608;2023-08-30T11:32:41;22.40;60.20
49379;DHT22;35254;47.990;-1.608;2023-08-30T11:35:10;22.40;60.30
49379;DHT22;35254;47.990;-1.608;2023-08-30T11:37:35;22.30;60.40
49379;DHT22;35254;47.990;-1.608;2023-08-30T11:40:02;22.40;60.50
49379;DHT22;35254;47.990;-1.608;2023-08-30T11:42:30;22.40;60.40
49379;DHT22;35254;47.990;-1.608;2023-08-30T11:44:58;22.40;60.60
49379;DHT22;35254;47.990;-1.608;2023-08-30T11:47:26;22.40;60.60
49379;DHT22;35254;47.990;-1.608;2023-08-30T11:49:56;22.40;60.20
49379;DHT22;35254;47.990;-1.608;2023-08-30T11:52:22;22.40;60.20
49379;DHT22;35254;47.990;-1.608;2023-08-30T11:54:49;22.40;60.30
49379;DHT22;35254;47.990;-1.608;2023-08-30T11:57:15;22.40;60.30
49379;DHT22;35254;47.990;-1.608;2023-08-30T11:59:40;22.40;60.40
49379;DHT22;35254;47.990;-1.608;2023-08-30T12:02:07;22.40;60.20
49379;DHT22;35254;47.990;-1.608;2023-08-30T12:04:39;22.40;60.10
49379;DHT22;35254;47.990;-1.608;2023-08-30T12:07:06;22.40;60.30
49379;DHT22;35254;47.990;-1.608;2023-08-30T12:09:31;22.40;60.30
49379;DHT22;35254;47.990;-1.608;2023-08-30T12:12:09;22.40;60.30
49379;DHT22;35254;47.990;-1.608;2023-08-30T12:14:38;22.40;60.40
49379;DHT22;35254;47.990;-1.608;2023-08-30T12:17:05;22.40;60.50
49379;DHT22;35254;47.990;-1.608;2023-08-30T12:19:34;22.40;60.50
49379;DHT22;35254;47.990;-1.608;2023-08-30T12:22:04;22.40;60.50
49379;DHT22;35254;47.990;-1.608;2023-08-30T12:24:43;22.40;60.60
49379;DHT22;35254;47.990;-1.608;2023-08-30T12:27:09;22.40;60.50
49379;DHT22;35254;47.990;-1.608;2023-08-30T12:29:34;22.40;60.50
49379;DHT22;35254;47.990;-1.608;2023-08-30T12:32:00;22.40;60.50
49379;DHT22;35254;47.990;-1.608;2023-08-30T12:34:26;22.40;60.40
49379;DHT22;35254;47.990;-1.608;2023-08-30T12:36:51;22.40;60.30
49379;DHT22;35254;47.990;-1.608;2023-08-30T12:39:17;22.40;60.20
49379;DHT22;35254;47.990;-1.608;2023-08-30T12:41:43;22.40;60.10
49379;DHT22;35254;47.990;-1.608;2023-08-30T12:44:08;22.40;60.00
49379;DHT22;35254;47.990;-1.608;2023-08-30T12:46:34;22.40;60.00
49379;DHT22;35254;47.990;-1.608;2023-08-30T12:48:59;22.40;59.90
49379;DHT22;35254;47.990;-1.608;2023-08-30T12:51:25;22.50;59.90
49379;DHT22;35254;47.990;-1.608;2023-08-30T12:53:51;22.50;59.80
49379;DHT22;35254;47.990;-1.608;2023-08-30T12:56:16;22.50;59.70
49379;DHT22;35254;47.990;-1.608;2023-08-30T12:58:42;22.50;59.70
49379;DHT22;35254;47.990;-1.608;2023-08-30T13:01:08;22.40;59.60
49379;DHT22;35254;47.990;-1.608;2023-08-30T13:03:33;22.50;59.70
49379;DHT22;35254;47.990;-1.608;2023-08-30T13:05:59;22.50;59.10
49379;DHT22;35254;47.990;-1.608;2023-08-30T13:08:24;22.50;58.90
49379;DHT22;35254;47.990;-1.608;2023-08-30T13:10:50;22.50;58.70
49379;DHT22;35254;47.990;-1.608;2023-08-30T13:13:15;22.40;58.50
49379;DHT22;35254;47.990;-1.608;2023-08-30T13:15:41;22.50;58.80
49379;DHT22;35254;47.990;-1.608;2023-08-30T13:18:07;22.50;59.00
49379;DHT22;35254;47.990;-1.608;2023-08-30T13:20:32;22.50;59.00
49379;DHT22;35254;47.990;-1.608;2023-08-30T13:22:58;22.50;55.40
49379;DHT22;35254;47.990;-1.608;2023-08-30T13:25:24;22.50;57.90
49379;DHT22;35254;47.990;-1.608;2023-08-30T13:27:49;22.50;57.30
49379;DHT22;35254;47.990;-1.608;2023-08-30T13:30:15;22.50;57.70
49379;DHT22;35254;47.990;-1.608;2023-08-30T13:32:40;22.50;57.80
49379;DHT22;35254;47.990;-1.608;2023-08-30T13:35:06;22.50;57.80
49379;DHT22;35254;47.990;-1.608;2023-08-30T13:37:32;22.50;58.00
49379;DHT22;35254;47.990;-1.608;2023-08-30T13:39:58;22.60;58.00
49379;DHT22;35254;47.990;-1.608;2023-08-30T13:42:23;22.50;57.80
49379;DHT22;35254;47.990;-1.608;2023-08-30T13:44:51;22.60;57.60
49379;DHT22;35254;47.990;-1.608;2023-08-30T13:47:17;22.50;57.50
49379;DHT22;35254;47.990;-1.608;2023-08-30T13:49:44;22.60;57.30
49379;DHT22;35254;47.990;-1.608;2023-08-30T13:52:10;22.60;57.60
49379;DHT22;35254;47.990;-1.608;2023-08-30T13:54:35;22.60;57.70
49379;DHT22;35254;47.990;-1.608;2023-08-30T13:57:01;22.60;57.80
49379;DHT22;35254;47.990;-1.608;2023-08-30T13:59:27;22.60;57.90
49379;DHT22;35254;47.990;-1.608;2023-08-30T14:01:53;22.60;58.10
49379;DHT22;35254;47.990;-1.608;2023-08-30T14:04:19;22.60;58.10
49379;DHT22;35254;47.990;-1.608;2023-08-30T14:06:45;22.60;58.20
49379;DHT22;35254;47.990;-1.608;2023-08-30T14:09:11;22.60;58.30
49379;DHT22;35254;47.990;-1.608;2023-08-30T14:11:36;22.60;58.30
49379;DHT22;35254;47.990;-1.608;2023-08-30T14:14:03;22.60;58.40
49379;DHT22;35254;47.990;-1.608;2023-08-30T14:16:29;22.60;58.50
49379;DHT22;35254;47.990;-1.608;2023-08-30T14:18:55;22.60;58.60
49379;DHT22;35254;47.990;-1.608;2023-08-30T14:21:20;22.60;58.60
49379;DHT22;35254;47.990;-1.608;2023-08-30T14:23:46;22.60;58.60
49379;DHT22;35254;47.990;-1.608;2023-08-30T14:26:12;22.60;58.70
49379;DHT22;35254;47.990;-1.608;2023-08-30T14:28:41;22.60;58.80
49379;DHT22;35254;47.990;-1.608;2023-08-30T14:31:07;22.60;58.90
49379;DHT22;35254;47.990;-1.608;2023-08-30T14:33:34;22.60;58.90
49379;DHT22;35254;47.990;-1.608;2023-08-30T14:35:59;22.60;58.90
49379;DHT22;35254;47.990;-1.608;2023-08-30T14:38:28;22.60;59.00
49379;DHT22;35254;47.990;-1.608;2023-08-30T14:40:58;22.60;59.10
49379;DHT22;35254;47.990;-1.608;2023-08-30T14:43:23;22.60;59.20
49379;DHT22;35254;47.990;-1.608;2023-08-30T14:45:49;22.60;59.20
49379;DHT22;35254;47.990;-1.608;2023-08-30T14:48:15;22.60;59.30
49379;DHT22;35254;47.990;-1.608;2023-08-30T14:50:40;22.60;59.30
49379;DHT22;35254;47.990;-1.608;2023-08-30T14:53:06;22.60;59.40
49379;DHT22;35254;47.990;-1.608;2023-08-30T14:55:32;22.70;59.30
49379;DHT22;35254;47.990;-1.608;2023-08-30T14:57:57;22.70;59.40
49379;DHT22;35254;47.990;-1.608;2023-08-30T15:00:24;22.70;59.40
49379;DHT22;35254;47.990;-1.608;2023-08-30T15:02:50;22.70;59.40
49379;DHT22;35254;47.990;-1.608;2023-08-30T15:05:15;22.70;59.40
49379;DHT22;35254;47.990;-1.608;2023-08-30T15:07:41;22.70;59.40
49379;DHT22;35254;47.990;-1.608;2023-08-30T15:10:07;22.70;59.50
49379;DHT22;35254;47.990;-1.608;2023-08-30T15:12:33;22.70;59.50
49379;DHT22;35254;47.990;-1.608;2023-08-30T15:14:58;22.70;59.50
49379;DHT22;35254;47.990;-1.608;2023-08-30T15:17:24;22.70;59.50
49379;DHT22;35254;47.990;-1.608;2023-08-30T15:19:50;22.70;59.50
49379;DHT22;35254;47.990;-1.608;2023-08-30T15:22:16;22.70;59.50
49379;DHT22;35254;47.990;-1.608;2023-08-30T15:24:42;22.70;59.50
49379;DHT22;35254;47.990;-1.608;2023-08-30T15:27:07;22.70;59.50
49379;DHT22;35254;47.990;-1.608;2023-08-30T15:29:33;22.70;59.50
49379;DHT22;35254;47.990;-1.608;2023-08-30T15:31:59;22.70;59.50
49379;DHT22;35254;47.990;-1.608;2023-08-30T15:34:24;22.70;59.40
49379;DHT22;35254;47.990;-1.608;2023-08-30T15:36:50;22.70;59.40
49379;DHT22;35254;47.990;-1.608;2023-08-30T15:39:15;22.70;59.40
49379;DHT22;35254;47.990;-1.608;2023-08-30T15:41:43;22.70;59.40
49379;DHT22;35254;47.990;-1.608;2023-08-30T15:44:08;22.70;59.40
49379;DHT22;35254;47.990;-1.608;2023-08-30T15:46:34;22.70;59.40
49379;DHT22;35254;47.990;-1.608;2023-08-30T15:49:00;22.70;59.40
49379;DHT22;35254;47.990;-1.608;2023-08-30T15:51:26;22.70;59.40
49379;DHT22;35254;47.990;-1.608;2023-08-30T15:53:52;22.70;59.40
49379;DHT22;35254;47.990;-1.608;2023-08-30T15:56:18;22.70;59.40
49379;DHT22;35254;47.990;-1.608;2023-08-30T15:58:46;22.70;59.30
49379;DHT22;35254;47.990;-1.608;2023-08-30T16:01:12;22.70;59.30
49379;DHT22;35254;47.990;-1.608;2023-08-30T16:03:38;22.70;59.30
49379;DHT22;35254;47.990;-1.608;2023-08-30T16:06:04;22.70;59.30
49379;DHT22;35254;47.990;-1.608;2023-08-30T16:08:30;22.80;59.40
49379;DHT22;35254;47.990;-1.608;2023-08-30T16:10:56;22.70;59.20
49379;DHT22;35254;47.990;-1.608;2023-08-30T16:13:22;22.80;59.20
49379;DHT22;35254;47.990;-1.608;2023-08-30T16:15:47;22.70;59.10
49379;DHT22;35254;47.990;-1.608;2023-08-30T16:18:13;22.80;59.00
49379;DHT22;35254;47.990;-1.608;2023-08-30T16:20:39;22.80;59.00
49379;DHT22;35254;47.990;-1.608;2023-08-30T16:23:04;22.80;59.00
49379;DHT22;35254;47.990;-1.608;2023-08-30T16:25:30;22.70;59.00
49379;DHT22;35254;47.990;-1.608;2023-08-30T16:27:56;22.70;58.90
49379;DHT22;35254;47.990;-1.608;2023-08-30T16:30:22;22.80;59.00
49379;DHT22;35254;47.990;-1.608;2023-08-30T16:32:48;22.80;59.10
49379;DHT22;35254;47.990;-1.608;2023-08-30T16:35:14;22.80;59.10
49379;DHT22;35254;47.990;-1.608;2023-08-30T16:37:40;22.80;59.20
49379;DHT22;35254;47.990;-1.608;2023-08-30T16:40:06;22.80;59.30
49379;DHT22;35254;47.990;-1.608;2023-08-30T16:42:32;22.80;59.20
49379;DHT22;35254;47.990;-1.608;2023-08-30T16:44:57;22.80;59.20
49379;DHT22;35254;47.990;-1.608;2023-08-30T16:47:24;22.80;59.30
49379;DHT22;35254;47.990;-1.608;2023-08-30T16:49:50;22.80;59.30
49379;DHT22;35254;47.990;-1.608;2023-08-30T16:52:16;22.80;59.00
49379;DHT22;35254;47.990;-1.608;2023-08-30T16:54:42;22.80;58.00
49379;DHT22;35254;47.990;-1.608;2023-08-30T16:57:08;22.90;57.00
49379;DHT22;35254;47.990;-1.608;2023-08-30T16:59:33;22.90;56.10
49379;DHT22;35254;47.990;-1.608;2023-08-30T17:01:59;22.80;55.90
49379;DHT22;35254;47.990;-1.608;2023-08-30T17:04:25;22.80;53.80
49379;DHT22;35254;47.990;-1.608;2023-08-30T17:06:50;22.80;55.20
49379;DHT22;35254;47.990;-1.608;2023-08-30T17:09:16;22.80;56.50
49379;DHT22;35254;47.990;-1.608;2023-08-30T17:11:42;22.80;57.00
49379;DHT22;35254;47.990;-1.608;2023-08-30T17:14:11;22.80;57.70
49379;DHT22;35254;47.990;-1.608;2023-08-30T17:16:37;22.80;57.80
49379;DHT22;35254;47.990;-1.608;2023-08-30T17:19:04;22.80;57.30
49379;DHT22;35254;47.990;-1.608;2023-08-30T17:21:29;22.80;58.10
49379;DHT22;35254;47.990;-1.608;2023-08-30T17:23:55;22.80;58.10
49379;DHT22;35254;47.990;-1.608;2023-08-30T17:26:21;22.80;56.90
49379;DHT22;35254;47.990;-1.608;2023-08-30T17:28:47;22.80;58.20
49379;DHT22;35254;47.990;-1.608;2023-08-30T17:31:13;22.80;57.70
49379;DHT22;35254;47.990;-1.608;2023-08-30T17:33:39;22.80;57.80
49379;DHT22;35254;47.990;-1.608;2023-08-30T17:36:05;22.80;57.20
49379;DHT22;35254;47.990;-1.608;2023-08-30T17:38:31;22.80;58.50
49379;DHT22;35254;47.990;-1.608;2023-08-30T17:40:57;22.80;58.40
49379;DHT22;35254;47.990;-1.608;2023-08-30T17:43:23;22.80;58.30
49379;DHT22;35254;47.990;-1.608;2023-08-30T17:45:49;22.80;57.80
49379;DHT22;35254;47.990;-1.608;2023-08-30T17:48:15;22.80;55.70
49379;DHT22;35254;47.990;-1.608;2023-08-30T17:50:42;22.80;54.60
49379;DHT22;35254;47.990;-1.608;2023-08-30T17:53:09;22.70;54.80
49379;DHT22;35254;47.990;-1.608;2023-08-30T17:55:36;22.70;55.20
49379;DHT22;35254;47.990;-1.608;2023-08-30T17:58:02;22.70;54.30
49379;DHT22;35254;47.990;-1.608;2023-08-30T18:00:27;22.70;55.60
49379;DHT22;35254;47.990;-1.608;2023-08-30T18:02:53;22.70;55.00
49379;DHT22;35254;47.990;-1.608;2023-08-30T18:05:19;22.70;54.90
49379;DHT22;35254;47.990;-1.608;2023-08-30T18:07:44;22.70;61.10
49379;DHT22;35254;47.990;-1.608;2023-08-30T18:10:11;22.70;55.60
49379;DHT22;35254;47.990;-1.608;2023-08-30T18:12:37;22.70;56.30
49379;DHT22;35254;47.990;-1.608;2023-08-30T18:15:03;22.80;55.80
49379;DHT22;35254;47.990;-1.608;2023-08-30T18:17:29;22.70;57.20
49379;DHT22;35254;47.990;-1.608;2023-08-30T18:19:58;22.80;58.60
49379;DHT22;35254;47.990;-1.608;2023-08-30T18:22:24;22.70;56.20
49379;DHT22;35254;47.990;-1.608;2023-08-30T18:24:49;22.80;57.10
49379;DHT22;35254;47.990;-1.608;2023-08-30T18:27:15;22.80;57.70
49379;DHT22;35254;47.990;-1.608;2023-08-30T18:29:42;22.80;58.20
49379;DHT22;35254;47.990;-1.608;2023-08-30T18:32:08;22.80;58.70
49379;DHT22;35254;47.990;-1.608;2023-08-30T18:34:36;22.70;59.00
49379;DHT22;35254;47.990;-1.608;2023-08-30T18:37:03;22.80;59.20
49379;DHT22;35254;47.990;-1.608;2023-08-30T18:39:29;22.80;58.60
49379;DHT22;35254;47.990;-1.608;2023-08-30T18:41:56;22.80;58.70
49379;DHT22;35254;47.990;-1.608;2023-08-30T18:44:22;22.70;58.80
49379;DHT22;35254;47.990;-1.608;2023-08-30T18:46:48;22.80;58.90
49379;DHT22;35254;47.990;-1.608;2023-08-30T18:49:13;22.80;59.20
49379;DHT22;35254;47.990;-1.608;2023-08-30T18:51:39;22.70;59.10
49379;DHT22;35254;47.990;-1.608;2023-08-30T18:54:05;22.80;59.20
49379;DHT22;35254;47.990;-1.608;2023-08-30T18:56:31;22.80;59.30
49379;DHT22;35254;47.990;-1.608;2023-08-30T18:58:56;22.80;59.90
49379;DHT22;35254;47.990;-1.608;2023-08-30T19:01:22;22.80;59.40
49379;DHT22;35254;47.990;-1.608;2023-08-30T19:03:48;22.80;59.40
49379;DHT22;35254;47.990;-1.608;2023-08-30T19:06:15;22.70;59.10
49379;DHT22;35254;47.990;-1.608;2023-08-30T19:08:41;22.80;58.80
49379;DHT22;35254;47.990;-1.608;2023-08-30T19:11:07;22.70;58.60
49379;DHT22;35254;47.990;-1.608;2023-08-30T19:13:35;22.80;58.50
49379;DHT22;35254;47.990;-1.608;2023-08-30T19:16:01;22.80;58.90
49379;DHT22;35254;47.990;-1.608;2023-08-30T19:18:26;22.80;59.20
49379;DHT22;35254;47.990;-1.608;2023-08-30T19:20:57;22.80;59.10
49379;DHT22;35254;47.990;-1.608;2023-08-30T19:23:23;22.80;59.40
49379;DHT22;35254;47.990;-1.608;2023-08-30T19:25:52;22.80;59.40
49379;DHT22;35254;47.990;-1.608;2023-08-30T19:28:18;22.80;59.50
49379;DHT22;35254;47.990;-1.608;2023-08-30T19:30:44;22.80;59.50
49379;DHT22;35254;47.990;-1.608;2023-08-30T19:33:10;22.80;59.60
49379;DHT22;35254;47.990;-1.608;2023-08-30T19:35:36;22.80;59.70
49379;DHT22;35254;47.990;-1.608;2023-08-30T19:38:03;22.80;59.80
49379;DHT22;35254;47.990;-1.608;2023-08-30T19:40:33;22.90;59.70
49379;DHT22;35254;47.990;-1.608;2023-08-30T19:43:01;22.90;59.90
49379;DHT22;35254;47.990;-1.608;2023-08-30T19:45:27;22.90;60.50
49379;DHT22;35254;47.990;-1.608;2023-08-30T19:47:53;22.90;60.10
49379;DHT22;35254;47.990;-1.608;2023-08-30T19:50:19;22.80;60.20
49379;DHT22;35254;47.990;-1.608;2023-08-30T19:52:49;22.90;60.90
49379;DHT22;35254;47.990;-1.608;2023-08-30T19:55:15;22.80;60.10
49379;DHT22;35254;47.990;-1.608;2023-08-30T19:57:42;22.90;60.20
49379;DHT22;35254;47.990;-1.608;2023-08-30T20:00:12;22.90;60.00
49379;DHT22;35254;47.990;-1.608;2023-08-30T20:02:38;22.90;60.00
49379;DHT22;35254;47.990;-1.608;2023-08-30T20:05:04;22.90;60.40
49379;DHT22;35254;47.990;-1.608;2023-08-30T20:07:30;22.90;60.20
49379;DHT22;35254;47.990;-1.608;2023-08-30T20:09:56;22.90;60.30
49379;DHT22;35254;47.990;-1.608;2023-08-30T20:12:23;22.90;60.10
49379;DHT22;35254;47.990;-1.608;2023-08-30T20:14:50;22.90;60.20
49379;DHT22;35254;47.990;-1.608;2023-08-30T20:17:16;22.90;60.60
49379;DHT22;35254;47.990;-1.608;2023-08-30T20:19:41;22.90;60.50
49379;DHT22;35254;47.990;-1.608;2023-08-30T20:22:07;22.90;61.00
49379;DHT22;35254;47.990;-1.608;2023-08-30T20:24:33;22.90;61.00
49379;DHT22;35254;47.990;-1.608;2023-08-30T20:26:59;22.90;62.30
49379;DHT22;35254;47.990;-1.608;2023-08-30T20:29:24;22.90;61.80
49379;DHT22;35254;47.990;-1.608;2023-08-30T20:31:50;22.90;62.60
49379;DHT22;35254;47.990;-1.608;2023-08-30T20:34:16;22.90;63.30
49379;DHT22;35254;47.990;-1.608;2023-08-30T20:36:43;22.90;62.40
49379;DHT22;35254;47.990;-1.608;2023-08-30T20:39:09;22.90;61.80
49379;DHT22;35254;47.990;-1.608;2023-08-30T20:41:36;22.90;62.70
49379;DHT22;35254;47.990;-1.608;2023-08-30T20:44:02;22.90;63.10
49379;DHT22;35254;47.990;-1.608;2023-08-30T20:46:28;22.90;62.50
49379;DHT22;35254;47.990;-1.608;2023-08-30T20:48:54;22.90;62.40
49379;DHT22;35254;47.990;-1.608;2023-08-30T20:51:22;22.90;62.30
49379;DHT22;35254;47.990;-1.608;2023-08-30T20:53:48;22.90;62.30
49379;DHT22;35254;47.990;-1.608;2023-08-30T20:56:15;22.90;63.50
49379;DHT22;35254;47.990;-1.608;2023-08-30T20:58:44;22.90;63.80
49379;DHT22;35254;47.990;-1.608;2023-08-30T21:01:13;22.90;63.40
49379;DHT22;35254;47.990;-1.608;2023-08-30T21:03:39;22.90;62.50
49379;DHT22;35254;47.990;-1.608;2023-08-30T21:06:09;22.90;63.00
49379;DHT22;35254;47.990;-1.608;2023-08-30T21:08:38;22.90;63.30
49379;DHT22;35254;47.990;-1.608;2023-08-30T21:11:07;22.90;63.20
49379;DHT22;35254;47.990;-1.608;2023-08-30T21:13:36;22.90;63.80
49379;DHT22;35254;47.990;-1.608;2023-08-30T21:16:03;23.00;64.30
49379;DHT22;35254;47.990;-1.608;2023-08-30T21:18:29;22.90;63.40
49379;DHT22;35254;47.990;-1.608;2023-08-30T21:20:58;22.90;63.20
49379;DHT22;35254;47.990;-1.608;2023-08-30T21:23:26;22.90;63.30
49379;DHT22;35254;47.990;-1.608;2023-08-30T21:25:52;22.90;63.80
49379;DHT22;35254;47.990;-1.608;2023-08-30T21:28:18;22.90;63.60
49379;DHT22;35254;47.990;-1.608;2023-08-30T21:30:44;22.90;63.50
49379;DHT22;35254;47.990;-1.608;2023-08-30T21:33:16;22.90;63.80
49379;DHT22;35254;47.990;-1.608;2023-08-30T21:35:44;22.90;63.90
49379;DHT22;35254;47.990;-1.608;2023-08-30T21:38:12;22.90;64.70
49379;DHT22;35254;47.990;-1.608;2023-08-30T21:40:39;22.90;64.50
49379;DHT22;35254;47.990;-1.608;2023-08-30T21:43:06;22.90;64.30
49379;DHT22;35254;47.990;-1.608;2023-08-30T21:45:32;22.90;64.10
49379;DHT22;35254;47.990;-1.608;2023-08-30T21:47:58;22.80;63.90
49379;DHT22;35254;47.990;-1.608;2023-08-30T21:50:24;22.90;63.80
49379;DHT22;35254;47.990;-1.608;2023-08-30T21:52:50;22.90;64.10
49379;DHT22;35254;47.990;-1.608;2023-08-30T21:55:16;22.90;64.70
49379;DHT22;35254;47.990;-1.608;2023-08-30T21:57:43;22.90;64.20
49379;DHT22;35254;47.990;-1.608;2023-08-30T22:00:09;22.90;64.80
49379;DHT22;35254;47.990;-1.608;2023-08-30T22:02:42;22.90;64.90
49379;DHT22;35254;47.990;-1.608;2023-08-30T22:05:08;22.90;64.90
49379;DHT22;35254;47.990;-1.608;2023-08-30T22:07:33;22.90;64.80
49379;DHT22;35254;47.990;-1.608;2023-08-30T22:09:59;22.80;64.90
49379;DHT22;35254;47.990;-1.608;2023-08-30T22:12:25;22.80;64.60
49379;DHT22;35254;47.990;-1.608;2023-08-30T22:14:52;22.80;64.60
49379;DHT22;35254;47.990;-1.608;2023-08-30T22:17:18;22.80;64.40
49379;DHT22;35254;47.990;-1.608;2023-08-30T22:19:43;22.80;64.40
49379;DHT22;35254;47.990;-1.608;2023-08-30T22:22:11;22.80;64.70
49379;DHT22;35254;47.990;-1.608;2023-08-30T22:24:36;22.80;63.70